sensor_id;sensor_type;location;lat;lon;timestamp;pressure;altitude;pressure_sealevel;temperature;humidity
51687;BME280;37774;52.192;4.584;2023-10-13T00:01:39;103019.81;;;17.42;100.00
51687;BME280;37774;52.192;4.584;2023-10-13T00:04:25;102614.28;;;17.38;100.00
51687;BME280;37774;52.192;4.584;2023-10-13T00:07:10;102442.81;;;17.94;100.00
51687;BME280;37774;52.192;4.584;2023-10-13T00:09:55;102343.91;;;17.84;100.00
51687;BME280;37774;52.192;4.584;2023-10-13T00:12:43;102254.59;;;17.79;100.00
51687;BME280;37774;52.192;4.584;2023-10-13T00:15:33;102221.09;;;17.89;100.00
51687;BME280;37774;52.192;4.584;2023-10-13T00:18:23;102231.69;;;17.86;100.00
51687;BME280;37774;52.192;4.584;2023-10-13T00:21:11;102230.84;;;17.84;100.00
51687;BME280;37774;52.192;4.584;2023-10-13T00:23:59;102252.06;;;17.73;100.00
51687;BME280;37774;52.192;4.584;2023-10-13T00:26:51;102292.44;;;17.67;100.00
51687;BME280;37774;52.192;4.584;2023-10-13T00:29:39;102298.34;;;17.84;100.00
51687;BME280;37774;52.192;4.584;2023-10-13T00:32:27;102341.41;;;17.75;100.00
51687;BME280;37774;52.192;4.584;2023-10-13T00:35:16;102326.84;;;17.49;100.00
51687;BME280;37774;52.192;4.584;2023-10-13T00:38:06;102351.28;;;17.59;100.00
51687;BME280;37774;52.192;4.584;2023-10-13T00:40:56;102354.81;;;17.53;100.00
51687;BME280;37774;52.192;4.584;2023-10-13T00:43:48;102356.59;;;17.52;100.00
51687;BME280;37774;52.192;4.584;2023-10-13T00:46:48;102336.47;;;17.51;100.00
51687;BME280;37774;52.192;4.584;2023-10-13T00:49:39;102379.25;;;17.63;100.00
51687;BME280;37774;52.192;4.584;2023-10-13T00:52:24;102369.59;;;17.65;100.00
51687;BME280;37774;52.192;4.584;2023-10-13T00:55:10;102384.56;;;17.58;100.00
51687;BME280;37774;52.192;4.584;2023-10-13T00:57:56;102411.06;;;17.38;100.00
51687;BME280;37774;52.192;4.584;2023-10-13T01:00:42;102439.13;;;17.33;100.00
51687;BME280;37774;52.192;4.584;2023-10-13T01:03:33;102419.94;;;17.29;100.00
51687;BME280;37774;52.192;4.584;2023-10-13T01:06:18;102415.31;;;17.51;100.00
51687;BME280;37774;52.192;4.584;2023-10-13T01:09:06;102440.78;;;17.43;100.00
51687;BME280;37774;52.192;4.584;2023-10-13T01:12:00;102464.22;;;17.63;100.00
51687;BME280;37774;52.192;4.584;2023-10-13T01:14:45;102466.00;;;17.63;100.00
51687;BME280;37774;52.192;4.584;2023-10-13T01:17:30;102482.81;;;17.45;100.00
51687;BME280;37774;52.192;4.584;2023-10-13T01:20:17;102524.78;;;17.54;100.00
51687;BME280;37774;52.192;4.584;2023-10-13T01:23:11;102551.09;;;17.52;100.00
51687;BME280;37774;52.192;4.584;2023-10-13T01:26:02;102572.22;;;17.38;100.00
51687;BME280;37774;52.192;4.584;2023-10-13T01:28:49;102605.56;;;17.29;100.00
51687;BME280;37774;52.192;4.584;2023-10-13T01:31:33;102636.13;;;17.44;100.00
51687;BME280;37774;52.192;4.584;2023-10-13T01:34:21;102515.13;;;17.58;100.00
51687;BME280;37774;52.192;4.584;2023-10-13T01:37:07;102480.63;;;16.93;100.00
51687;BME280;37774;52.192;4.584;2023-10-13T01:39:56;102523.84;;;17.60;100.00
51687;BME280;37774;52.192;4.584;2023-10-13T01:42:41;102487.97;;;17.56;100.00
51687;BME280;37774;52.192;4.584;2023-10-13T01:45:26;102465.22;;;17.53;100.00
51687;BME280;37774;52.192;4.584;2023-10-13T01:48:14;102394.59;;;17.20;100.00
51687;BME280;37774;52.192;4.584;2023-10-13T01:51:00;102391.91;;;17.28;100.00
51687;BME280;37774;52.192;4.584;2023-10-13T01:53:48;102365.94;;;16.99;100.00
51687;BME280;37774;52.192;4.584;2023-10-13T01:56:41;102435.44;;;17.52;100.00
51687;BME280;37774;52.192;4.584;2023-10-13T01:59:27;102377.78;;;17.37;100.00
51687;BME280;37774;52.192;4.584;2023-10-13T02:02:11;102419.69;;;17.51;100.00
51687;BME280;37774;52.192;4.584;2023-10-13T02:04:57;102441.66;;;17.42;100.00
51687;BME280;37774;52.192;4.584;2023-10-13T02:07:44;102427.78;;;17.32;100.00
51687;BME280;37774;52.192;4.584;2023-10-13T02:10:30;102424.16;;;17.41;100.00
51687;BME280;37774;52.192;4.584;2023-10-13T02:13:17;102370.34;;;16.98;100.00
51687;BME280;37774;52.192;4.584;2023-10-13T02:16:03;102429.41;;;17.43;100.00
51687;BME280;37774;52.192;4.584;2023-10-13T02:18:50;102379.41;;;17.47;100.00
51687;BME280;37774;52.192;4.584;2023-10-13T02:21:35;102356.72;;;17.42;100.00
51687;BME280;37774;52.192;4.584;2023-10-13T02:24:24;102289.50;;;17.23;100.00
51687;BME280;37774;52.192;4.584;2023-10-13T02:27:14;102286.84;;;17.27;100.00
51687;BME280;37774;52.192;4.584;2023-10-13T02:30:00;102297.91;;;17.54;100.00
51687;BME280;37774;52.192;4.584;2023-10-13T02:32:45;102251.72;;;17.34;100.00
51687;BME280;37774;52.192;4.584;2023-10-13T02:35:32;102265.56;;;17.47;100.00
51687;BME280;37774;52.192;4.584;2023-10-13T02:38:25;102234.22;;;17.33;100.00
51687;BME280;37774;52.192;4.584;2023-10-13T02:41:19;102244.81;;;17.27;100.00
51687;BME280;37774;52.192;4.584;2023-10-13T02:44:09;102268.69;;;17.08;100.00
51687;BME280;37774;52.192;4.584;2023-10-13T02:46:57;102291.47;;;17.06;100.00
51687;BME280;37774;52.192;4.584;2023-10-13T02:49:42;102400.06;;;17.02;100.00
51687;BME280;37774;52.192;4.584;2023-10-13T02:52:27;102433.34;;;17.01;100.00
51687;BME280;37774;52.192;4.584;2023-10-13T02:55:17;102416.06;;;16.69;100.00
51687;BME280;37774;52.192;4.584;2023-10-13T02:58:09;102466.75;;;16.79;100.00
51687;BME280;37774;52.192;4.584;2023-10-13T03:00:53;102538.38;;;16.97;100.00
51687;BME280;37774;52.192;4.584;2023-10-13T03:03:40;102555.88;;;16.94;100.00
51687;BME280;37774;52.192;4.584;2023-10-13T03:06:26;102462.56;;;16.50;100.00
51687;BME280;37774;52.192;4.584;2023-10-13T03:09:16;102577.75;;;16.97;100.00
51687;BME280;37774;52.192;4.584;2023-10-13T03:12:01;102540.16;;;16.90;100.00
51687;BME280;37774;52.192;4.584;2023-10-13T03:14:47;102462.31;;;16.84;100.00
51687;BME280;37774;52.192;4.584;2023-10-13T03:17:32;102387.78;;;17.04;100.00
51687;BME280;37774;52.192;4.584;2023-10-13T03:20:19;102303.81;;;16.94;100.00
51687;BME280;37774;52.192;4.584;2023-10-13T03:23:06;102285.31;;;17.08;100.00
51687;BME280;37774;52.192;4.584;2023-10-13T03:25:53;102156.06;;;16.82;100.00
51687;BME280;37774;52.192;4.584;2023-10-13T03:28:40;101901.38;;;15.61;100.00
51687;BME280;37774;52.192;4.584;2023-10-13T03:31:25;102015.22;;;16.79;100.00
51687;BME280;37774;52.192;4.584;2023-10-13T03:34:13;102032.47;;;17.00;100.00
51687;BME280;37774;52.192;4.584;2023-10-13T03:37:00;101994.38;;;16.70;100.00
51687;BME280;37774;52.192;4.584;2023-10-13T03:39:54;102041.13;;;17.05;100.00
51687;BME280;37774;52.192;4.584;2023-10-13T03:42:40;101966.66;;;17.10;100.00
51687;BME280;37774;52.192;4.584;2023-10-13T03:45:26;101951.97;;;16.98;100.00
51687;BME280;37774;52.192;4.584;2023-10-13T03:48:13;101970.31;;;16.96;100.00
51687;BME280;37774;52.192;4.584;2023-10-13T03:51:11;101977.50;;;16.86;100.00
51687;BME280;37774;52.192;4.584;2023-10-13T03:54:00;102003.75;;;16.85;100.00
51687;BME280;37774;52.192;4.584;2023-10-13T03:56:51;101984.94;;;16.56;100.00
51687;BME280;37774;52.192;4.584;2023-10-13T03:59:39;101998.81;;;16.64;100.00
51687;BME280;37774;52.192;4.584;2023-10-13T04:02:30;102035.31;;;16.82;100.00
51687;BME280;37774;52.192;4.584;2023-10-13T04:05:15;102009.88;;;16.85;100.00
51687;BME280;37774;52.192;4.584;2023-10-13T04:08:18;102007.69;;;16.57;100.00
51687;BME280;37774;52.192;4.584;2023-10-13T04:11:27;101989.56;;;16.37;100.00
51687;BME280;37774;52.192;4.584;2023-10-13T04:14:58;102045.34;;;16.52;100.00
51687;BME280;37774;52.192;4.584;2023-10-13T04:17:57;102029.47;;;16.62;100.00
51687;BME280;37774;52.192;4.584;2023-10-13T04:20:42;102004.97;;;16.62;100.00
51687;BME280;37774;52.192;4.584;2023-10-13T04:23:30;102001.47;;;16.63;100.00
51687;BME280;37774;52.192;4.584;2023-10-13T04:26:36;101996.34;;;16.55;100.00
51687;BME280;37774;52.192;4.584;2023-10-13T04:29:27;101932.72;;;16.39;100.00
51687;BME280;37774;52.192;4.584;2023-10-13T04:32:29;101931.25;;;16.79;100.00
51687;BME280;37774;52.192;4.584;2023-10-13T04:35:16;101885.25;;;16.55;100.00
51687;BME280;37774;52.192;4.584;2023-10-13T04:38:08;102015.28;;;16.74;100.00
51687;BME280;37774;52.192;4.584;2023-10-13T04:41:03;101923.75;;;17.11;100.00
51687;BME280;37774;52.192;4.584;2023-10-13T04:43:55;101891.97;;;17.25;100.00
51687;BME280;37774;52.192;4.584;2023-10-13T04:46:40;101825.53;;;17.19;100.00
51687;BME280;37774;52.192;4.584;2023-10-13T04:49:40;101821.41;;;17.51;100.00
51687;BME280;37774;52.192;4.584;2023-10-13T04:52:37;101870.31;;;17.59;100.00
51687;BME280;37774;52.192;4.584;2023-10-13T04:55:49;101891.13;;;17.68;100.00
51687;BME280;37774;52.192;4.584;2023-10-13T04:58:43;101902.44;;;17.72;100.00
51687;BME280;37774;52.192;4.584;2023-10-13T05:01:47;101891.00;;;17.74;100.00
51687;BME280;37774;52.192;4.584;2023-10-13T05:05:08;101908.72;;;17.64;100.00
51687;BME280;37774;52.192;4.584;2023-10-13T05:08:22;101844.00;;;17.15;100.00
51687;BME280;37774;52.192;4.584;2023-10-13T05:11:25;101929.03;;;17.56;100.00
51687;BME280;37774;52.192;4.584;2023-10-13T05:14:28;101859.94;;;17.49;100.00
51687;BME280;37774;52.192;4.584;2023-10-13T05:17:32;101847.56;;;17.58;100.00
51687;BME280;37774;52.192;4.584;2023-10-13T05:20:35;101771.00;;;17.31;100.00
51687;BME280;37774;52.192;4.584;2023-10-13T05:23:38;101777.50;;;17.55;100.00
51687;BME280;37774;52.192;4.584;2023-10-13T05:26:41;101712.03;;;17.46;100.00
51687;BME280;37774;52.192;4.584;2023-10-13T05:29:45;101674.41;;;17.44;100.00
51687;BME280;37774;52.192;4.584;2023-10-13T05:32:50;101625.22;;;17.50;100.00
51687;BME280;37774;52.192;4.584;2023-10-13T05:35:53;101598.25;;;17.42;100.00
51687;BME280;37774;52.192;4.584;2023-10-13T05:38:56;101572.78;;;17.44;100.00
51687;BME280;37774;52.192;4.584;2023-10-13T05:41:59;101550.44;;;17.28;100.00
51687;BME280;37774;52.192;4.584;2023-10-13T05:45:03;101501.78;;;17.13;100.00
51687;BME280;37774;52.192;4.584;2023-10-13T05:48:21;101554.72;;;17.32;100.00
51687;BME280;37774;52.192;4.584;2023-10-13T05:51:25;101545.38;;;17.20;100.00
51687;BME280;37774;52.192;4.584;2023-10-13T05:54:31;101562.97;;;17.16;100.00
51687;BME280;37774;52.192;4.584;2023-10-13T05:57:33;101484.75;;;16.91;100.00
51687;BME280;37774;52.192;4.584;2023-10-13T06:00:38;101483.56;;;17.06;100.00
51687;BME280;37774;52.192;4.584;2023-10-13T06:03:42;101491.28;;;17.13;100.00
51687;BME280;37774;52.192;4.584;2023-10-13T06:06:45;101430.84;;;16.78;100.00
51687;BME280;37774;52.192;4.584;2023-10-13T06:09:48;101468.56;;;17.12;100.00
51687;BME280;37774;52.192;4.584;2023-10-13T06:12:51;101499.50;;;16.99;100.00
51687;BME280;37774;52.192;4.584;2023-10-13T06:15:50;101544.16;;;16.96;100.00
51687;BME280;37774;52.192;4.584;2023-10-13T06:18:55;101565.44;;;16.83;100.00
51687;BME280;37774;52.192;4.584;2023-10-13T06:21:58;101578.38;;;16.91;100.00
51687;BME280;37774;52.192;4.584;2023-10-13T06:25:01;101580.50;;;16.73;100.00
51687;BME280;37774;52.192;4.584;2023-10-13T06:28:04;101590.47;;;17.01;100.00
51687;BME280;37774;52.192;4.584;2023-10-13T06:31:09;101577.47;;;16.92;100.00
51687;BME280;37774;52.192;4.584;2023-10-13T06:34:07;101593.63;;;16.75;100.00
51687;BME280;37774;52.192;4.584;2023-10-13T06:36:53;101597.31;;;17.07;100.00
51687;BME280;37774;52.192;4.584;2023-10-13T06:39:39;101617.28;;;17.14;100.00
51687;BME280;37774;52.192;4.584;2023-10-13T06:42:25;101630.75;;;16.99;100.00
51687;BME280;37774;52.192;4.584;2023-10-13T06:45:11;101702.16;;;17.16;100.00
51687;BME280;37774;52.192;4.584;2023-10-13T06:48:01;101713.16;;;17.34;100.00
51687;BME280;37774;52.192;4.584;2023-10-13T06:50:52;101811.94;;;17.43;100.00
51687;BME280;37774;52.192;4.584;2023-10-13T06:53:39;101718.19;;;17.43;100.00
51687;BME280;37774;52.192;4.584;2023-10-13T06:56:30;101699.72;;;17.48;100.00
51687;BME280;37774;52.192;4.584;2023-10-13T06:59:15;101716.47;;;17.42;100.00
51687;BME280;37774;52.192;4.584;2023-10-13T07:02:01;101709.03;;;17.63;100.00
51687;BME280;37774;52.192;4.584;2023-10-13T07:04:50;101553.28;;;16.79;100.00
51687;BME280;37774;52.192;4.584;2023-10-13T07:07:42;101701.22;;;17.60;100.00
51687;BME280;37774;52.192;4.584;2023-10-13T07:10:28;101694.16;;;17.62;100.00
51687;BME280;37774;52.192;4.584;2023-10-13T07:13:16;101728.13;;;17.70;100.00
51687;BME280;37774;52.192;4.584;2023-10-13T07:16:01;101693.88;;;17.73;100.00
51687;BME280;37774;52.192;4.584;2023-10-13T07:18:50;101686.97;;;17.69;100.00
51687;BME280;37774;52.192;4.584;2023-10-13T07:21:37;101566.78;;;17.39;100.00
51687;BME280;37774;52.192;4.584;2023-10-13T07:24:31;101606.97;;;17.80;100.00
51687;BME280;37774;52.192;4.584;2023-10-13T07:27:16;101606.97;;;17.80;100.00
51687;BME280;37774;52.192;4.584;2023-10-13T07:30:08;101564.81;;;17.84;100.00
51687;BME280;37774;52.192;4.584;2023-10-13T07:32:58;101539.19;;;17.92;100.00
51687;BME280;37774;52.192;4.584;2023-10-13T07:35:43;101476.06;;;17.92;100.00
51687;BME280;37774;52.192;4.584;2023-10-13T07:38:36;101485.88;;;18.18;100.00
51687;BME280;37774;52.192;4.584;2023-10-13T07:41:23;101457.88;;;18.17;100.00
51687;BME280;37774;52.192;4.584;2023-10-13T07:44:14;101455.88;;;18.25;100.00
51687;BME280;37774;52.192;4.584;2023-10-13T07:47:00;101431.28;;;17.95;100.00
51687;BME280;37774;52.192;4.584;2023-10-13T07:49:48;101340.50;;;17.53;100.00
51687;BME280;37774;52.192;4.584;2023-10-13T07:52:34;101385.31;;;18.10;100.00
51687;BME280;37774;52.192;4.584;2023-10-13T07:55:38;101367.13;;;17.72;100.00
51687;BME280;37774;52.192;4.584;2023-10-13T07:58:25;101457.25;;;18.37;100.00
51687;BME280;37774;52.192;4.584;2023-10-13T08:01:12;101310.31;;;17.66;100.00
51687;BME280;37774;52.192;4.584;2023-10-13T08:04:01;101242.78;;;17.40;100.00
51687;BME280;37774;52.192;4.584;2023-10-13T08:06:55;101406.69;;;18.56;100.00
51687;BME280;37774;52.192;4.584;2023-10-13T08:09:55;101392.69;;;18.54;100.00
51687;BME280;37774;52.192;4.584;2023-10-13T08:12:43;101356.34;;;18.38;100.00
51687;BME280;37774;52.192;4.584;2023-10-13T08:15:30;101375.94;;;18.58;100.00
51687;BME280;37774;52.192;4.584;2023-10-13T08:18:17;101374.75;;;18.67;100.00
51687;BME280;37774;52.192;4.584;2023-10-13T08:21:13;101333.50;;;18.67;100.00
51687;BME280;37774;52.192;4.584;2023-10-13T08:24:04;101325.41;;;18.74;100.00
51687;BME280;37774;52.192;4.584;2023-10-13T08:26:51;101310.75;;;18.65;100.00
51687;BME280;37774;52.192;4.584;2023-10-13T08:29:59;101308.69;;;18.48;100.00
51687;BME280;37774;52.192;4.584;2023-10-13T08:33:11;101320.75;;;18.80;100.00
51687;BME280;37774;52.192;4.584;2023-10-13T08:36:02;101334.94;;;18.76;100.00
51687;BME280;37774;52.192;4.584;2023-10-13T08:39:10;101307.06;;;18.71;100.00
51687;BME280;37774;52.192;4.584;2023-10-13T08:42:28;101281.13;;;18.60;100.00
51687;BME280;37774;52.192;4.584;2023-10-13T08:45:36;101325.91;;;18.83;100.00
51687;BME280;37774;52.192;4.584;2023-10-13T08:48:36;101288.75;;;18.67;100.00
51687;BME280;37774;52.192;4.584;2023-10-13T08:51:22;101303.78;;;18.64;100.00
51687;BME280;37774;52.192;4.584;2023-10-13T08:54:27;101271.56;;;18.57;100.00
51687;BME280;37774;52.192;4.584;2023-10-13T08:57:18;101306.66;;;18.83;100.00
51687;BME280;37774;52.192;4.584;2023-10-13T09:00:17;101284.34;;;18.68;100.00
51687;BME280;37774;52.192;4.584;2023-10-13T09:03:38;101284.66;;;18.84;100.00
51687;BME280;37774;52.192;4.584;2023-10-13T09:06:23;101281.53;;;19.00;100.00
51687;BME280;37774;52.192;4.584;2023-10-13T09:09:10;101246.09;;;18.83;100.00
51687;BME280;37774;52.192;4.584;2023-10-13T09:12:11;101270.19;;;18.97;100.00
51687;BME280;37774;52.192;4.584;2023-10-13T09:14:56;101226.31;;;18.96;100.00
51687;BME280;37774;52.192;4.584;2023-10-13T09:17:43;101203.31;;;19.02;100.00
51687;BME280;37774;52.192;4.584;2023-10-13T09:20:33;101184.69;;;19.06;100.00
51687;BME280;37774;52.192;4.584;2023-10-13T09:23:26;101169.13;;;19.00;100.00
51687;BME280;37774;52.192;4.584;2023-10-13T09:26:33;101108.19;;;18.86;100.00
51687;BME280;37774;52.192;4.584;2023-10-13T09:29:20;101158.34;;;19.06;100.00
51687;BME280;37774;52.192;4.584;2023-10-13T09:32:08;101165.69;;;19.22;100.00
51687;BME280;37774;52.192;4.584;2023-10-13T09:35:00;101136.09;;;19.15;100.00
51687;BME280;37774;52.192;4.584;2023-10-13T09:37:48;101068.44;;;18.93;100.00
51687;BME280;37774;52.192;4.584;2023-10-13T09:40:33;101112.97;;;19.44;100.00
51687;BME280;37774;52.192;4.584;2023-10-13T09:43:22;101144.84;;;19.60;100.00
51687;BME280;37774;52.192;4.584;2023-10-13T09:46:08;101093.06;;;19.37;100.00
51687;BME280;37774;52.192;4.584;2023-10-13T09:49:05;101052.22;;;19.26;100.00
51687;BME280;37774;52.192;4.584;2023-10-13T09:51:54;101108.78;;;19.83;100.00
51687;BME280;37774;52.192;4.584;2023-10-13T09:54:51;101103.63;;;19.80;100.00
51687;BME280;37774;52.192;4.584;2023-10-13T09:57:49;101097.06;;;19.90;100.00
51687;BME280;37774;52.192;4.584;2023-10-13T10:00:44;101067.13;;;19.91;100.00
51687;BME280;37774;52.192;4.584;2023-10-13T10:03:32;100967.91;;;19.26;100.00
51687;BME280;37774;52.192;4.584;2023-10-13T10:06:24;101062.75;;;19.92;100.00
51687;BME280;37774;52.192;4.584;2023-10-13T10:09:11;100990.59;;;19.51;100.00
51687;BME280;37774;52.192;4.584;2023-10-13T10:12:11;101004.75;;;19.69;100.00
51687;BME280;37774;52.192;4.584;2023-10-13T10:15:09;101024.53;;;20.00;100.00
51687;BME280;37774;52.192;4.584;2023-10-13T10:18:04;101044.31;;;19.90;100.00
51687;BME280;37774;52.192;4.584;2023-10-13T10:20:49;101059.66;;;20.22;100.00
51687;BME280;37774;52.192;4.584;2023-10-13T10:23:38;101011.56;;;19.96;100.00
51687;BME280;37774;52.192;4.584;2023-10-13T10:26:32;100945.63;;;19.96;100.00
51687;BME280;37774;52.192;4.584;2023-10-13T10:29:19;101033.16;;;20.63;100.00
51687;BME280;37774;52.192;4.584;2023-10-13T10:32:12;100998.56;;;20.50;100.00
51687;BME280;37774;52.192;4.584;2023-10-13T10:35:03;101016.22;;;20.67;100.00
51687;BME280;37774;52.192;4.584;2023-10-13T10:37:51;101014.03;;;20.58;100.00
51687;BME280;37774;52.192;4.584;2023-10-13T10:40:53;100975.66;;;20.51;100.00
51687;BME280;37774;52.192;4.584;2023-10-13T10:43:42;100989.97;;;20.64;100.00
51687;BME280;37774;52.192;4.584;2023-10-13T10:46:29;100967.09;;;20.65;100.00
51687;BME280;37774;52.192;4.584;2023-10-13T10:49:21;100975.53;;;20.35;100.00
51687;BME280;37774;52.192;4.584;2023-10-13T10:52:17;100989.22;;;20.43;100.00
51687;BME280;37774;52.192;4.584;2023-10-13T10:55:04;100903.03;;;19.84;100.00
51687;BME280;37774;52.192;4.584;2023-10-13T10:57:58;100951.06;;;20.31;100.00
51687;BME280;37774;52.192;4.584;2023-10-13T11:00:45;100898.16;;;19.96;100.00
51687;BME280;37774;52.192;4.584;2023-10-13T11:03:35;100959.47;;;20.39;100.00
51687;BME280;37774;52.192;4.584;2023-10-13T11:06:26;100947.13;;;20.21;100.00
51687;BME280;37774;52.192;4.584;2023-10-13T11:09:12;100938.75;;;20.32;100.00
51687;BME280;37774;52.192;4.584;2023-10-13T11:12:12;100946.22;;;20.22;100.00
51687;BME280;37774;52.192;4.584;2023-10-13T11:15:08;100941.03;;;20.20;100.00
51687;BME280;37774;52.192;4.584;2023-10-13T11:18:05;100948.56;;;20.28;100.00
51687;BME280;37774;52.192;4.584;2023-10-13T11:20:58;100918.06;;;20.22;100.00
51687;BME280;37774;52.192;4.584;2023-10-13T11:23:55;100925.88;;;20.24;100.00
51687;BME280;37774;52.192;4.584;2023-10-13T11:26:40;100924.97;;;20.25;100.00
51687;BME280;37774;52.192;4.584;2023-10-13T11:29:32;100663.38;;;18.84;100.00
51687;BME280;37774;52.192;4.584;2023-10-13T11:32:18;100906.84;;;20.36;100.00
51687;BME280;37774;52.192;4.584;2023-10-13T11:35:05;100838.34;;;19.96;100.00
51687;BME280;37774;52.192;4.584;2023-10-13T11:38:06;100864.72;;;20.16;100.00
51687;BME280;37774;52.192;4.584;2023-10-13T11:40:58;100874.72;;;20.46;100.00
51687;BME280;37774;52.192;4.584;2023-10-13T11:43:55;100828.38;;;20.22;100.00
51687;BME280;37774;52.192;4.584;2023-10-13T11:47:07;100843.97;;;20.44;100.00
51687;BME280;37774;52.192;4.584;2023-10-13T11:50:17;100829.69;;;20.49;100.00
51687;BME280;37774;52.192;4.584;2023-10-13T11:53:17;100820.84;;;20.50;100.00
51687;BME280;37774;52.192;4.584;2023-10-13T11:56:03;100834.69;;;20.55;100.00
51687;BME280;37774;52.192;4.584;2023-10-13T11:58:52;100821.31;;;20.58;100.00
51687;BME280;37774;52.192;4.584;2023-10-13T12:01:37;100819.00;;;20.52;100.00
51687;BME280;37774;52.192;4.584;2023-10-13T12:04:37;100836.94;;;20.45;100.00
51687;BME280;37774;52.192;4.584;2023-10-13T12:07:33;100796.78;;;20.02;100.00
51687;BME280;37774;52.192;4.584;2023-10-13T12:10:30;100841.47;;;20.24;100.00
51687;BME280;37774;52.192;4.584;2023-10-13T12:13:22;100846.41;;;20.12;100.00
51687;BME280;37774;52.192;4.584;2023-10-13T12:16:08;100823.72;;;19.89;100.00
51687;BME280;37774;52.192;4.584;2023-10-13T12:18:56;100795.88;;;19.83;100.00
51687;BME280;37774;52.192;4.584;2023-10-13T12:21:45;100816.50;;;20.12;100.00
51687;BME280;37774;52.192;4.584;2023-10-13T12:24:32;100835.66;;;20.17;100.00
51687;BME280;37774;52.192;4.584;2023-10-13T12:27:28;100803.72;;;20.04;100.00
51687;BME280;37774;52.192;4.584;2023-10-13T12:30:29;100825.22;;;20.14;100.00
51687;BME280;37774;52.192;4.584;2023-10-13T12:33:32;100801.00;;;19.87;100.00
51687;BME280;37774;52.192;4.584;2023-10-13T12:36:24;100806.41;;;20.03;100.00
51687;BME280;37774;52.192;4.584;2023-10-13T12:39:15;100821.22;;;19.86;100.00
51687;BME280;37774;52.192;4.584;2023-10-13T12:42:18;100772.91;;;19.47;100.00
51687;BME280;37774;52.192;4.584;2023-10-13T12:45:22;100798.50;;;19.83;100.00
51687;BME280;37774;52.192;4.584;2023-10-13T12:48:26;100764.16;;;19.47;100.00
51687;BME280;37774;52.192;4.584;2023-10-13T12:51:29;100841.22;;;19.92;100.00
51687;BME280;37774;52.192;4.584;2023-10-13T12:54:34;100849.53;;;19.82;100.00
51687;BME280;37774;52.192;4.584;2023-10-13T12:57:20;100790.44;;;19.48;100.00
51687;BME280;37774;52.192;4.584;2023-10-13T13:00:08;100687.94;;;18.64;100.00
51687;BME280;37774;52.192;4.584;2023-10-13T13:03:06;100863.84;;;19.77;100.00
51687;BME280;37774;52.192;4.584;2023-10-13T13:05:57;100899.25;;;19.71;100.00
51687;BME280;37774;52.192;4.584;2023-10-13T13:08:42;100831.44;;;19.35;100.00
51687;BME280;37774;52.192;4.584;2023-10-13T13:11:28;100921.97;;;19.74;100.00
51687;BME280;37774;52.192;4.584;2023-10-13T13:14:13;100928.53;;;19.65;100.00
51687;BME280;37774;52.192;4.584;2023-10-13T13:16:58;100932.25;;;19.80;100.00
51687;BME280;37774;52.192;4.584;2023-10-13T13:19:49;100922.84;;;19.74;100.00
51687;BME280;37774;52.192;4.584;2023-10-13T13:22:35;100876.97;;;19.38;100.00
51687;BME280;37774;52.192;4.584;2023-10-13T13:25:20;100935.38;;;19.69;100.00
51687;BME280;37774;52.192;4.584;2023-10-13T13:28:10;100922.63;;;19.79;100.00
51687;BME280;37774;52.192;4.584;2023-10-13T13:30:55;100922.44;;;19.83;100.00
51687;BME280;37774;52.192;4.584;2023-10-13T13:33:41;100929.31;;;19.86;100.00
51687;BME280;37774;52.192;4.584;2023-10-13T13:36:29;100852.09;;;19.44;100.00
51687;BME280;37774;52.192;4.584;2023-10-13T13:39:14;100896.91;;;19.65;100.00
51687;BME280;37774;52.192;4.584;2023-10-13T13:42:02;100914.28;;;19.69;100.00
51687;BME280;37774;52.192;4.584;2023-10-13T13:44:47;100921.00;;;19.76;100.00
51687;BME280;37774;52.192;4.584;2023-10-13T13:47:33;100918.88;;;19.84;100.00
51687;BME280;37774;52.192;4.584;2023-10-13T13:50:20;100937.47;;;19.81;100.00
51687;BME280;37774;52.192;4.584;2023-10-13T13:53:10;100931.72;;;19.92;100.00
51687;BME280;37774;52.192;4.584;2023-10-13T13:55:55;100936.69;;;19.79;100.00
51687;BME280;37774;52.192;4.584;2023-10-13T13:58:40;100890.41;;;19.11;100.00
51687;BME280;37774;52.192;4.584;2023-10-13T14:01:26;100984.25;;;19.35;100.00
51687;BME280;37774;52.192;4.584;2023-10-13T14:04:13;101037.41;;;19.24;100.00
51687;BME280;37774;52.192;4.584;2023-10-13T14:07:01;101065.16;;;19.10;100.00
51687;BME280;37774;52.192;4.584;2023-10-13T14:09:51;101103.94;;;18.83;100.00
51687;BME280;37774;52.192;4.584;2023-10-13T14:12:50;101124.34;;;18.76;100.00
51687;BME280;37774;52.192;4.584;2023-10-13T14:15:34;101186.34;;;18.85;100.00
51687;BME280;37774;52.192;4.584;2023-10-13T14:18:27;101221.94;;;18.72;100.00
51687;BME280;37774;52.192;4.584;2023-10-13T14:21:14;101296.38;;;18.75;100.00
51687;BME280;37774;52.192;4.584;2023-10-13T14:24:02;101331.78;;;18.66;100.00
51687;BME280;37774;52.192;4.584;2023-10-13T14:26:59;101342.44;;;18.62;100.00
51687;BME280;37774;52.192;4.584;2023-10-13T14:29:52;101344.91;;;18.39;100.00
51687;BME280;37774;52.192;4.584;2023-10-13T14:32:38;101372.19;;;18.65;100.00
51687;BME280;37774;52.192;4.584;2023-10-13T14:35:24;101374.09;;;18.60;100.00
51687;BME280;37774;52.192;4.584;2023-10-13T14:38:10;101399.63;;;18.58;100.00
51687;BME280;37774;52.192;4.584;2023-10-13T14:40:56;101384.75;;;18.56;100.00
51687;BME280;37774;52.192;4.584;2023-10-13T14:43:44;101359.34;;;18.28;100.00
51687;BME280;37774;52.192;4.584;2023-10-13T14:46:32;101385.91;;;18.47;100.00
51687;BME280;37774;52.192;4.584;2023-10-13T14:49:19;101385.34;;;18.37;100.00